createdAt,value
2018-08-07T00:01:05.457Z,98902.00
2018-08-07T00:03:10.241Z,98907.00
2018-08-07T00:05:14.589Z,98902.00
2018-08-07T00:07:18.814Z,98902.00
2018-08-07T00:09:22.463Z,98901.00
2018-08-07T00:11:29.451Z,98903.00
2018-08-07T00:13:35.777Z,98898.00
2018-08-07T00:15:42.721Z,98898.00
2018-08-07T00:17:47.549Z,98897.00
2018-08-07T00:19:51.881Z,98894.00
2018-08-07T00:21:56.282Z,98891.00
2018-08-07T00:24:00.336Z,98887.00
2018-08-07T00:26:05.075Z,98892.00
2018-08-07T00:28:10.429Z,98889.00
2018-08-07T00:30:16.949Z,98890.00
2018-08-07T00:32:22.976Z,98887.00
2018-08-07T00:34:27.026Z,98883.00
2018-08-07T00:36:34.836Z,98884.00
2018-08-07T00:38:42.578Z,98888.00
2018-08-07T00:40:49.047Z,98885.00
2018-08-07T00:42:53.395Z,98885.00
2018-08-07T00:44:58.525Z,98883.00
2018-08-07T00:47:03.313Z,98880.00
2018-08-07T00:49:08.302Z,98877.00
2018-08-07T00:51:12.524Z,98877.00
2018-08-07T00:53:16.400Z,98882.00
2018-08-07T00:55:20.625Z,98882.00
2018-08-07T00:57:25.935Z,98880.00
2018-08-07T00:59:29.486Z,98887.00
2018-08-07T01:01:34.100Z,98888.00
2018-08-07T01:03:41.787Z,98887.00
2018-08-07T01:05:48.908Z,98886.00
2018-08-07T01:07:55.036Z,98882.00
2018-08-07T01:09:59.724Z,98880.00
2018-08-07T01:12:03.390Z,98876.00
2018-08-07T01:14:07.287Z,98878.00
2018-08-07T01:16:11.843Z,98875.00
2018-08-07T01:18:15.473Z,98872.00
2018-08-07T01:20:23.685Z,98873.00
2018-08-07T01:22:27.539Z,98872.00
2018-08-07T01:24:31.566Z,98873.00
2018-08-07T01:26:35.482Z,98873.00
2018-08-07T01:28:39.158Z,98872.00
2018-08-07T01:30:47.413Z,98868.00
2018-08-07T01:32:53.669Z,98865.00
2018-08-07T01:34:58.117Z,98863.00
2018-08-07T01:37:02.176Z,98861.00
2018-08-07T01:39:08.680Z,98860.00
2018-08-07T01:41:12.509Z,98856.00
2018-08-07T01:43:16.848Z,98851.00
2018-08-07T01:45:20.616Z,98849.00
2018-08-07T01:47:24.880Z,98853.00
2018-08-07T01:49:28.684Z,98848.00
2018-08-07T01:51:33.080Z,98850.00
2018-08-07T01:53:37.215Z,98849.00
2018-08-07T01:55:41.321Z,98848.00
2018-08-07T01:57:47.051Z,98847.00
2018-08-07T01:59:51.370Z,98846.00
2018-08-07T02:01:55.293Z,98843.00
2018-08-07T02:03:58.965Z,98842.00
2018-08-07T02:06:03.477Z,98839.00
2018-08-07T02:08:07.577Z,98842.00
2018-08-07T02:10:14.377Z,98839.00
2018-08-07T02:12:18.609Z,98841.00
2018-08-07T02:14:22.412Z,98840.00
2018-08-07T02:16:25.966Z,98845.00
2018-08-07T02:18:29.986Z,98842.00
2018-08-07T02:20:33.454Z,98840.00
2018-08-07T02:22:37.394Z,98835.00
2018-08-07T02:24:41.361Z,98837.00
2018-08-07T02:26:45.346Z,98837.00
2018-08-07T02:28:52.600Z,98839.00
2018-08-07T02:30:59.650Z,98839.00
2018-08-07T02:33:05.669Z,98839.00
2018-08-07T02:35:14.238Z,98836.00
2018-08-07T02:37:17.959Z,98835.00
2018-08-07T02:39:21.689Z,98835.00
2018-08-07T02:41:25.882Z,98833.00
2018-08-07T02:43:29.654Z,98834.00
2018-08-07T02:45:33.348Z,98831.00
2018-08-07T02:47:37.095Z,98829.00
2018-08-07T02:49:41.099Z,98830.00
2018-08-07T02:51:45.101Z,98833.00
2018-08-07T02:53:48.774Z,98828.00
2018-08-07T02:55:57.225Z,98832.00
2018-08-07T02:58:04.845Z,98829.00
2018-08-07T03:00:15.438Z,98835.00
2018-08-07T03:02:20.568Z,98841.00
2018-08-07T03:04:25.479Z,98837.00
2018-08-07T03:06:29.891Z,98836.00
2018-08-07T03:08:34.452Z,98832.00
2018-08-07T03:10:38.026Z,98831.00
2018-08-07T03:12:41.655Z,98829.00
2018-08-07T03:14:45.901Z,98833.00
2018-08-07T03:16:50.568Z,98830.00
2018-08-07T03:18:55.313Z,98831.00
2018-08-07T03:21:02.372Z,98833.00
2018-08-07T03:23:09.182Z,98836.00
2018-08-07T03:25:14.560Z,98835.00
2018-08-07T03:27:18.423Z,98835.00
2018-08-07T03:29:22.568Z,98841.00
2018-08-07T03:31:26.376Z,98841.00
2018-08-07T03:33:30.025Z,98847.00
2018-08-07T03:35:33.977Z,98846.00
2018-08-07T03:37:38.684Z,98847.00
2018-08-07T03:39:42.204Z,98843.00
2018-08-07T03:41:46.332Z,98851.00
2018-08-07T03:43:49.903Z,98847.00
2018-08-07T03:45:53.646Z,98840.00
2018-08-07T03:47:57.316Z,98838.00
2018-08-07T03:50:03.951Z,98841.00
2018-08-07T03:52:10.493Z,98845.00
2018-08-07T03:54:18.514Z,98851.00
2018-08-07T03:56:22.405Z,98856.00
2018-08-07T03:58:26.546Z,98858.00
2018-08-07T04:00:30.145Z,98855.00
2018-08-07T04:02:33.944Z,98852.00
2018-08-07T04:04:38.346Z,98854.00
2018-08-07T04:06:42.241Z,98858.00
2018-08-07T04:08:45.968Z,98853.00
2018-08-07T04:10:49.637Z,98856.00
2018-08-07T04:12:54.053Z,98857.00
2018-08-07T04:14:57.701Z,98853.00
2018-08-07T04:17:01.451Z,98843.00
2018-08-07T04:19:07.199Z,98849.00
2018-08-07T04:21:13.885Z,98848.00
2018-08-07T04:23:17.692Z,98844.00
2018-08-07T04:25:22.447Z,98847.00
2018-08-07T04:27:26.842Z,98849.00
2018-08-07T04:29:30.354Z,98848.00
2018-08-07T04:31:33.917Z,98844.00
2018-08-07T04:33:38.165Z,98847.00
2018-08-07T04:35:41.917Z,98847.00
2018-08-07T04:37:46.314Z,98845.00
2018-08-07T04:39:50.333Z,98850.00
2018-08-07T04:41:53.942Z,98848.00
2018-08-07T04:43:57.813Z,98850.00
2018-08-07T04:46:02.012Z,98853.00
2018-08-07T04:48:06.418Z,98848.00
2018-08-07T04:50:11.945Z,98844.00
2018-08-07T04:52:19.625Z,98843.00
2018-08-07T04:54:25.748Z,98843.00
2018-08-07T04:56:30.490Z,98844.00
2018-08-07T04:58:34.737Z,98847.00
2018-08-07T05:00:40.364Z,98842.00
2018-08-07T05:02:45.324Z,98843.00
2018-08-07T05:04:49.426Z,98842.00
2018-08-07T05:06:53.556Z,98842.00
2018-08-07T05:08:57.389Z,98839.00
2018-08-07T05:11:01.290Z,98841.00
2018-08-07T05:13:05.373Z,98844.00
2018-08-07T05:15:10.102Z,98843.00
2018-08-07T05:17:15.425Z,98848.00
2018-08-07T05:19:23.809Z,98850.00
2018-08-07T05:21:30.176Z,98850.00
2018-08-07T05:23:35.413Z,98847.00
2018-08-07T05:25:40.956Z,98855.00
2018-08-07T05:27:44.761Z,98855.00
2018-08-07T05:29:48.635Z,98861.00
2018-08-07T05:31:52.921Z,98860.00
2018-08-07T05:33:56.778Z,98860.00
2018-08-07T05:36:00.574Z,98856.00
2018-08-07T05:38:04.530Z,98860.00
2018-08-07T05:40:09.409Z,98857.00
2018-08-07T05:42:13.353Z,98856.00
2018-08-07T05:44:17.808Z,98852.00
2018-08-07T05:46:24.712Z,98853.00
2018-08-07T05:48:30.033Z,98857.00
2018-08-07T05:50:36.739Z,98855.00
2018-08-07T05:52:40.328Z,98856.00
2018-08-07T05:54:43.869Z,98854.00
2018-08-07T05:56:47.861Z,98854.00
2018-08-07T05:58:53.391Z,98854.00
2018-08-07T06:01:01.078Z,98858.00
2018-08-07T06:03:06.732Z,98862.00
2018-08-07T06:05:11.653Z,98858.00
2018-08-07T06:07:15.328Z,98862.00
2018-08-07T06:09:19.229Z,98862.00
2018-08-07T06:11:23.413Z,98862.00
2018-08-07T06:13:26.919Z,98866.00
2018-08-07T06:15:30.753Z,98863.00
2018-08-07T06:17:34.213Z,98866.00
2018-08-07T06:19:38.268Z,98865.00
2018-08-07T06:21:42.212Z,98861.00
2018-08-07T06:23:45.870Z,98863.00
2018-08-07T06:25:49.835Z,98859.00
2018-08-07T06:27:54.542Z,98865.00
2018-08-07T06:30:02.161Z,98857.00
2018-08-07T06:32:07.245Z,98860.00
2018-08-07T06:34:13.121Z,98862.00
2018-08-07T06:36:17.942Z,98859.00
2018-08-07T06:38:21.574Z,98853.00
2018-08-07T06:40:25.582Z,98855.00
2018-08-07T06:42:29.076Z,98861.00
2018-08-07T06:44:33.172Z,98859.00
2018-08-07T06:46:37.001Z,98857.00
2018-08-07T06:48:40.531Z,98859.00
2018-08-07T06:50:44.066Z,98858.00
2018-08-07T06:52:49.373Z,98860.00
2018-08-07T06:54:53.366Z,98858.00
2018-08-07T06:56:57.056Z,98853.00
2018-08-07T06:59:02.307Z,98852.00
2018-08-07T07:01:09.827Z,98852.00
2018-08-07T07:03:16.097Z,98850.00
2018-08-07T07:05:21.466Z,98848.00
2018-08-07T07:07:25.189Z,98853.00
2018-08-07T07:09:28.932Z,98841.00
2018-08-07T07:11:32.803Z,98842.00
2018-08-07T07:13:37.345Z,98844.00
2018-08-07T07:15:40.888Z,98844.00
2018-08-07T07:17:46.120Z,98840.00
2018-08-07T07:19:49.740Z,98836.00
2018-08-07T07:21:53.493Z,98839.00
2018-08-07T07:23:57.641Z,98834.00
2018-08-07T07:26:01.661Z,98834.00
2018-08-07T07:28:06.878Z,98830.00
2018-08-07T07:30:20.258Z,98829.00
2018-08-07T07:32:25.714Z,98831.00
2018-08-07T07:34:29.327Z,98830.00
2018-08-07T07:36:33.206Z,98829.00
2018-08-07T07:38:36.736Z,98829.00
2018-08-07T07:40:40.346Z,98828.00
2018-08-07T07:42:44.173Z,98826.00
2018-08-07T07:44:47.799Z,98823.00
2018-08-07T07:46:54.958Z,98818.00
2018-08-07T07:48:58.985Z,98823.00
2018-08-07T07:51:02.926Z,98819.00
2018-08-07T07:53:07.382Z,98815.00
2018-08-07T07:55:16.365Z,98820.00
2018-08-07T07:57:26.643Z,98818.00
2018-08-07T07:59:30.364Z,98817.00
2018-08-07T08:01:34.022Z,98821.00
2018-08-07T08:03:37.859Z,98818.00
2018-08-07T08:05:41.625Z,98816.00
2018-08-07T08:07:45.952Z,98820.00
2018-08-07T08:09:49.664Z,98818.00
2018-08-07T08:11:53.968Z,98823.00
2018-08-07T08:13:58.124Z,98822.00
2018-08-07T08:16:02.099Z,98819.00
2018-08-07T08:18:06.171Z,98816.00
2018-08-07T08:20:12.593Z,98819.00
2018-08-07T08:22:19.860Z,98818.00
2018-08-07T08:24:26.390Z,98815.00
2018-08-07T08:26:32.573Z,98812.00
2018-08-07T08:28:36.521Z,98811.00
2018-08-07T08:30:40.208Z,98809.00
2018-08-07T08:32:44.707Z,98809.00
2018-08-07T08:34:48.487Z,98805.00
2018-08-07T08:36:52.065Z,98811.00
2018-08-07T08:38:56.449Z,98810.00
2018-08-07T08:41:01.320Z,98807.00
2018-08-07T08:43:05.528Z,98802.00
2018-08-07T08:45:13.359Z,98803.00
2018-08-07T08:47:17.141Z,98800.00
2018-08-07T08:49:23.742Z,98798.00
2018-08-07T08:51:30.255Z,98792.00
2018-08-07T08:53:36.027Z,98787.00
2018-08-07T08:55:40.078Z,98792.00
2018-08-07T08:57:44.749Z,98785.00
2018-08-07T08:59:48.334Z,98786.00
2018-08-07T09:01:51.905Z,98781.00
2018-08-07T09:03:55.929Z,98776.00
2018-08-07T09:06:06.637Z,98774.00
2018-08-07T09:08:11.630Z,98775.00
2018-08-07T09:10:20.806Z,98774.00
2018-08-07T09:12:24.447Z,98770.00
2018-08-07T09:14:28.369Z,98765.00
2018-08-07T09:16:31.887Z,98765.00
2018-08-07T09:18:35.410Z,98765.00
2018-08-07T09:20:39.465Z,98761.00
2018-08-07T09:22:44.828Z,98757.00
2018-08-07T09:24:49.793Z,98753.00
2018-08-07T09:26:53.790Z,98746.00
2018-08-07T09:29:00.385Z,98746.00
2018-08-07T09:31:05.872Z,98738.00
2018-08-07T09:33:12.966Z,98745.00
2018-08-07T09:35:18.471Z,98747.00
2018-08-07T09:37:22.084Z,98740.00
2018-08-07T09:39:25.911Z,98744.00
2018-08-07T09:41:29.755Z,98740.00
2018-08-07T09:43:33.887Z,98739.00
2018-08-07T09:45:37.718Z,98738.00
2018-08-07T09:47:41.799Z,98734.00
2018-08-07T09:49:45.488Z,98731.00
2018-08-07T09:51:49.224Z,98726.00
2018-08-07T09:53:53.082Z,98722.00
2018-08-07T09:55:56.699Z,98725.00
2018-08-07T09:58:01.842Z,98723.00
2018-08-07T10:00:12.865Z,98731.00
2018-08-07T10:02:22.113Z,98728.00
2018-08-07T10:04:25.981Z,98717.00
2018-08-07T10:06:30.349Z,98720.00
2018-08-07T10:08:34.078Z,98716.00
2018-08-07T10:10:37.740Z,98714.00
2018-08-07T10:12:41.621Z,98718.00
2018-08-07T10:14:45.878Z,98713.00
2018-08-07T10:16:49.457Z,98702.00
2018-08-07T10:18:53.599Z,98706.00
2018-08-07T10:20:57.544Z,98701.00
2018-08-07T10:23:01.356Z,98704.00
2018-08-07T10:25:08.309Z,98708.00
2018-08-07T10:27:15.112Z,98699.00
2018-08-07T10:29:22.111Z,98696.00
2018-08-07T10:31:26.149Z,98696.00
2018-08-07T10:33:29.872Z,98696.00
2018-08-07T10:35:33.542Z,98691.00
2018-08-07T10:37:37.204Z,98695.00
2018-08-07T10:39:40.864Z,98693.00
2018-08-07T10:41:44.462Z,98695.00
2018-08-07T10:43:49.102Z,98693.00
2018-08-07T10:45:52.621Z,98680.00
2018-08-07T10:47:56.151Z,98681.00
2018-08-07T10:50:00.044Z,98684.00
2018-08-07T10:52:03.706Z,98675.00
2018-08-07T10:54:07.593Z,98681.00
2018-08-07T10:56:15.120Z,98671.00
2018-08-07T10:58:20.390Z,98677.00
2018-08-07T11:00:27.566Z,98676.00
2018-08-07T11:02:31.578Z,98678.00
2018-08-07T11:04:35.387Z,98675.00
2018-08-07T11:06:39.401Z,98682.00
2018-08-07T11:08:48.674Z,98678.00
2018-08-07T11:10:52.630Z,98668.00
2018-08-07T11:12:57.774Z,98691.00
2018-08-07T11:15:02.222Z,98670.00
2018-08-07T11:17:08.791Z,98675.00
2018-08-07T11:19:14.663Z,98678.00
2018-08-07T11:21:23.377Z,98678.00
2018-08-07T11:23:33.577Z,98678.00
2018-08-07T11:25:38.081Z,98681.00
2018-08-07T11:27:43.479Z,98676.00
2018-08-07T11:29:48.975Z,98662.00
2018-08-07T11:31:53.567Z,98658.00
2018-08-07T11:34:00.134Z,98659.00
2018-08-07T11:36:06.280Z,98664.00
2018-08-07T11:38:10.160Z,98653.00
2018-08-07T11:40:17.650Z,98663.00
2018-08-07T11:42:29.690Z,98658.00
2018-08-07T11:44:35.318Z,98664.00
2018-08-07T11:46:39.414Z,98665.00
2018-08-07T11:48:43.560Z,98666.00
2018-08-07T11:50:48.585Z,98655.00
2018-08-07T11:52:52.760Z,98661.00
2018-08-07T11:54:56.730Z,98664.00
2018-08-07T11:57:00.272Z,98654.00
2018-08-07T11:59:12.391Z,98650.00
2018-08-07T12:01:15.920Z,98642.00
2018-08-07T12:03:19.570Z,98638.00
2018-08-07T12:05:27.755Z,98642.00
2018-08-07T12:07:36.343Z,98649.00
2018-08-07T12:09:40.758Z,98650.00
2018-08-07T12:11:44.630Z,98637.00
2018-08-07T12:13:48.440Z,98658.00
2018-08-07T12:15:53.134Z,98666.00
2018-08-07T12:18:00.518Z,98659.00
2018-08-07T12:20:07.311Z,98653.00
2018-08-07T12:22:11.656Z,98654.00
2018-08-07T12:24:15.691Z,98656.00
2018-08-07T12:26:19.477Z,98660.00
2018-08-07T12:28:23.147Z,98652.00
2018-08-07T12:30:28.414Z,98649.00
2018-08-07T12:32:32.323Z,98650.00
2018-08-07T12:34:36.105Z,98650.00
2018-08-07T12:36:41.020Z,98650.00
2018-08-07T12:38:46.260Z,98656.00
2018-08-07T12:40:53.243Z,98649.00
2018-08-07T12:43:05.582Z,98644.00
2018-08-07T12:45:12.791Z,98644.00
2018-08-07T12:47:19.308Z,98641.00
2018-08-07T12:49:24.307Z,98642.00
2018-08-07T12:51:28.910Z,98633.00
2018-08-07T12:53:35.147Z,98636.00
2018-08-07T12:55:39.976Z,98628.00
2018-08-07T12:57:47.157Z,98635.00
2018-08-07T12:59:51.258Z,98637.00
2018-08-07T13:01:55.592Z,98645.00
2018-08-07T13:04:01.839Z,98641.00
2018-08-07T13:06:10.039Z,98627.00
2018-08-07T13:08:18.338Z,98634.00
2018-08-07T13:10:24.301Z,98635.00
2018-08-07T13:12:29.288Z,98637.00
2018-08-07T13:14:34.547Z,98616.00
2018-08-07T13:16:38.748Z,98635.00
2018-08-07T13:18:44.213Z,98578.00
2018-08-07T13:20:48.510Z,98636.00
2018-08-07T13:22:53.042Z,98636.00
2018-08-07T13:24:59.926Z,98638.00
2018-08-07T13:27:05.664Z,98637.00
2018-08-07T13:29:13.175Z,98574.00
2018-08-07T13:31:18.276Z,98621.00
2018-08-07T13:33:25.820Z,98620.00
2018-08-07T13:35:30.339Z,98609.00
2018-08-07T13:37:35.221Z,98603.00
2018-08-07T13:39:39.834Z,98602.00
2018-08-07T13:41:43.708Z,98599.00
2018-08-07T13:43:48.395Z,98582.00
2018-08-07T13:46:01.360Z,98585.00
2018-08-07T13:48:06.732Z,98577.00
2018-08-07T13:50:17.370Z,98567.00
2018-08-07T13:52:26.841Z,98563.00
2018-08-07T13:54:31.702Z,98566.00
2018-08-07T13:56:36.362Z,98562.00
2018-08-07T13:58:40.503Z,98556.00
2018-08-07T14:00:45.141Z,98551.00
2018-08-07T14:02:51.404Z,98547.00
2018-08-07T14:04:56.827Z,98556.00
2018-08-07T14:07:04.209Z,98553.00
2018-08-07T14:09:16.992Z,98550.00
2018-08-07T14:11:23.864Z,98554.00
2018-08-07T14:13:29.129Z,98550.00
2018-08-07T14:15:32.994Z,98552.00
2018-08-07T14:17:37.189Z,98549.00
2018-08-07T14:19:41.822Z,98546.00
2018-08-07T14:21:45.769Z,98543.00
2018-08-07T14:23:50.083Z,98542.00
2018-08-07T14:25:55.636Z,98541.00
2018-08-07T14:28:00.376Z,98545.00
2018-08-07T14:30:06.931Z,98535.00
2018-08-07T14:32:11.098Z,98531.00
2018-08-07T14:34:16.437Z,98537.00
2018-08-07T14:36:24.720Z,98537.00
2018-08-07T14:38:32.132Z,98529.00
2018-08-07T14:40:35.945Z,98528.00
2018-08-07T14:42:41.401Z,98531.00
2018-08-07T14:44:45.097Z,98525.00
2018-08-07T14:46:48.645Z,98525.00
2018-08-07T14:48:52.595Z,98524.00
2018-08-07T14:50:57.841Z,98525.00
2018-08-07T14:53:02.183Z,98516.00
2018-08-07T14:55:06.767Z,98522.00
2018-08-07T14:57:10.902Z,98523.00
2018-08-07T14:59:18.830Z,98523.00
2018-08-07T15:01:27.384Z,98521.00
2018-08-07T15:04:20.067Z,98518.00
2018-08-07T15:06:24.382Z,98513.00
2018-08-07T15:08:29.881Z,98522.00
2018-08-07T15:10:35.714Z,98519.00
2018-08-07T15:12:40.210Z,98518.00
2018-08-07T15:14:45.926Z,98523.00
2018-08-07T15:16:49.763Z,98515.00
2018-08-07T15:18:53.787Z,98520.00
2018-08-07T15:20:58.728Z,98517.00
2018-08-07T15:23:02.962Z,98519.00
2018-08-07T15:25:16.920Z,98517.00
2018-08-07T15:27:25.423Z,98518.00
2018-08-07T15:29:29.903Z,98516.00
2018-08-07T15:31:33.692Z,98514.00
2018-08-07T15:33:37.882Z,98516.00
2018-08-07T15:35:43.776Z,98517.00
2018-08-07T15:37:58.112Z,98516.00
2018-08-07T15:40:29.765Z,98522.00
2018-08-07T15:42:37.967Z,98522.00
2018-08-07T15:44:47.144Z,98525.00
2018-08-07T15:46:51.819Z,98524.00
2018-08-07T15:48:57.147Z,98522.00
2018-08-07T15:51:08.095Z,98522.00
2018-08-07T15:53:17.915Z,98524.00
2018-08-07T15:55:25.570Z,98520.00
2018-08-07T15:57:34.055Z,98521.00
2018-08-07T15:59:43.134Z,98513.00
2018-08-07T16:01:49.901Z,98507.00
2018-08-07T16:04:01.866Z,98509.00
2018-08-07T16:06:17.174Z,98503.00
2018-08-07T16:08:21.641Z,98506.00
2018-08-07T16:10:25.525Z,98499.00
2018-08-07T16:12:34.566Z,98498.00
2018-08-07T16:14:39.142Z,98489.00
2018-08-07T16:16:43.032Z,98488.00
2018-08-07T16:18:49.047Z,98480.00
2018-08-07T16:20:57.240Z,98486.00
2018-08-07T16:23:01.571Z,98485.00
2018-08-07T16:25:08.039Z,98485.00
2018-08-07T16:27:15.082Z,98489.00
2018-08-07T16:29:22.417Z,98493.00
2018-08-07T16:31:26.470Z,98478.00
2018-08-07T16:33:35.207Z,98483.00
2018-08-07T16:35:39.291Z,98485.00
2018-08-07T16:37:46.972Z,98488.00
2018-08-07T16:39:50.644Z,98488.00
2018-08-07T16:41:54.348Z,98491.00
2018-08-07T16:43:58.802Z,98487.00
2018-08-07T16:46:07.339Z,98488.00
2018-08-07T16:48:14.617Z,98491.00
2018-08-07T16:50:28.668Z,98482.00
2018-08-07T16:52:32.389Z,98483.00
2018-08-07T16:54:36.615Z,98485.00
2018-08-07T16:56:40.554Z,98486.00
2018-08-07T16:58:44.069Z,98488.00
2018-08-07T17:00:47.643Z,98489.00
2018-08-07T17:02:51.764Z,98493.00
2018-08-07T17:04:55.332Z,98489.00
2018-08-07T17:07:00.151Z,98485.00
2018-08-07T17:09:07.763Z,98489.00
2018-08-07T17:11:15.841Z,98490.00
2018-08-07T17:13:21.228Z,98487.00
2018-08-07T17:15:28.112Z,98493.00
2018-08-07T17:17:32.027Z,98491.00
2018-08-07T17:19:35.735Z,98492.00
2018-08-07T17:21:40.302Z,98492.00
2018-08-07T17:23:43.934Z,98491.00
2018-08-07T17:25:47.673Z,98492.00
2018-08-07T17:27:51.835Z,98493.00
2018-08-07T17:29:55.534Z,98497.00
2018-08-07T17:31:59.294Z,98489.00
2018-08-07T17:34:03.365Z,98491.00
2018-08-07T17:36:07.289Z,98497.00
2018-08-07T17:38:11.125Z,98487.00
2018-08-07T17:40:19.719Z,98495.00
2018-08-07T17:42:29.084Z,98500.00
2018-08-07T17:44:33.676Z,98503.00
2018-08-07T17:46:37.486Z,98503.00
2018-08-07T17:48:41.346Z,98508.00
2018-08-07T17:50:45.170Z,98516.00
2018-08-07T17:52:50.490Z,98515.00
2018-08-07T17:54:54.151Z,98522.00
2018-08-07T17:56:58.955Z,98524.00
2018-08-07T17:59:03.237Z,98522.00
2018-08-07T18:01:06.913Z,98540.00
2018-08-07T18:03:10.998Z,98541.00
2018-08-07T18:05:15.486Z,98529.00
2018-08-07T18:07:26.933Z,98535.00
2018-08-07T18:09:34.406Z,98533.00
2018-08-07T18:11:39.361Z,98524.00
2018-08-07T18:13:43.021Z,98530.00
2018-08-07T18:15:46.898Z,98527.00
2018-08-07T18:17:51.279Z,98524.00
2018-08-07T18:19:55.597Z,98525.00
2018-08-07T18:21:59.865Z,98517.00
2018-08-07T18:24:03.650Z,98515.00
2018-08-07T18:26:08.690Z,98524.00
2018-08-07T18:28:14.779Z,98512.00
2018-08-07T18:30:21.234Z,98509.00
2018-08-07T18:32:28.510Z,98508.00
2018-08-07T18:34:37.071Z,98506.00
2018-08-07T18:36:42.576Z,98506.00
2018-08-07T18:38:49.057Z,98510.00
2018-08-07T18:40:53.168Z,98509.00
2018-08-07T18:42:58.777Z,98506.00
2018-08-07T18:45:06.078Z,98512.00
2018-08-07T18:47:14.069Z,98513.00
2018-08-07T18:49:18.655Z,98513.00
2018-08-07T18:51:22.829Z,98514.00
2018-08-07T18:53:26.678Z,98515.00
2018-08-07T18:55:30.835Z,98513.00
2018-08-07T18:57:34.610Z,98517.00
2018-08-07T18:59:38.640Z,98522.00
2018-08-07T19:01:43.856Z,98515.00
2018-08-07T19:03:48.684Z,98514.00
2018-08-07T19:05:53.477Z,98514.00
2018-08-07T19:07:58.664Z,98515.00
2018-08-07T19:10:06.540Z,98517.00
2018-08-07T19:12:18.264Z,98516.00
2018-08-07T19:14:25.243Z,98519.00
2018-08-07T19:16:30.352Z,98524.00
2018-08-07T19:18:35.462Z,98526.00
2018-08-07T19:20:40.361Z,98526.00
2018-08-07T19:22:44.248Z,98522.00
2018-08-07T19:24:47.866Z,98521.00
2018-08-07T19:26:51.912Z,98528.00
2018-08-07T19:28:56.603Z,98527.00
2018-08-07T19:31:01.472Z,98523.00
2018-08-07T19:33:08.860Z,98529.00
2018-08-07T19:35:16.359Z,98525.00
2018-08-07T19:37:24.356Z,98533.00
2018-08-07T19:39:29.573Z,98532.00
2018-08-07T19:41:34.502Z,98539.00
2018-08-07T19:43:39.079Z,98542.00
2018-08-07T19:45:46.040Z,98546.00
2018-08-07T19:47:51.509Z,98550.00
2018-08-07T19:50:06.081Z,98552.00
2018-08-07T19:52:24.576Z,98549.00
2018-08-07T19:54:30.267Z,98551.00
2018-08-07T19:56:34.539Z,98553.00
2018-08-07T19:58:40.084Z,98551.00
2018-08-07T20:00:43.980Z,98550.00
2018-08-07T20:02:48.062Z,98550.00
2018-08-07T20:04:52.457Z,98550.00
2018-08-07T20:06:57.144Z,98547.00
2018-08-07T20:09:03.910Z,98552.00
2018-08-07T20:11:09.260Z,98552.00
2018-08-07T20:13:17.683Z,98557.00
2018-08-07T20:15:27.851Z,98553.00
2018-08-07T20:17:32.503Z,98554.00
2018-08-07T20:19:47.364Z,98547.00
2018-08-07T20:21:52.211Z,98547.00
2018-08-07T20:23:57.820Z,98546.00
2018-08-07T20:26:01.662Z,98543.00
2018-08-07T20:28:08.044Z,98543.00
2018-08-07T20:30:14.001Z,98542.00
2018-08-07T20:32:22.519Z,98540.00
2018-08-07T20:34:27.878Z,98539.00
2018-08-07T20:36:35.334Z,98538.00
2018-08-07T20:38:39.688Z,98538.00
2018-08-07T20:40:44.717Z,98537.00
2018-08-07T20:42:49.981Z,98537.00
2018-08-07T20:44:54.776Z,98543.00
2018-08-07T20:46:59.413Z,98540.00
2018-08-07T20:49:03.343Z,98547.00
2018-08-07T20:51:07.063Z,98544.00
2018-08-07T20:53:11.365Z,98543.00
2018-08-07T20:55:17.779Z,98549.00
2018-08-07T20:57:26.907Z,98546.00
2018-08-07T20:59:35.071Z,98542.00
2018-08-07T21:01:40.729Z,98537.00
2018-08-07T21:03:44.307Z,98538.00
2018-08-07T21:05:48.510Z,98534.00
2018-08-07T21:07:52.442Z,98535.00
2018-08-07T21:09:56.886Z,98539.00
2018-08-07T21:12:00.717Z,98543.00
2018-08-07T21:14:04.958Z,98541.00
2018-08-07T21:16:08.912Z,98548.00
2018-08-07T21:18:13.042Z,98548.00
2018-08-07T21:20:19.574Z,98549.00
2018-08-07T21:22:26.397Z,98551.00
2018-08-07T21:24:34.161Z,98545.00
2018-08-07T21:26:39.711Z,98548.00
2018-08-07T21:28:44.477Z,98547.00
2018-08-07T21:30:48.377Z,98542.00
2018-08-07T21:32:52.090Z,98541.00
2018-08-07T21:34:55.772Z,98544.00
2018-08-07T21:37:01.154Z,98550.00
2018-08-07T21:39:08.257Z,98551.00
2018-08-07T21:41:12.118Z,98548.00
2018-08-07T21:43:15.980Z,98556.00
2018-08-07T21:45:21.069Z,98559.00
2018-08-07T21:47:25.649Z,98562.00
2018-08-07T21:49:32.597Z,98553.00
2018-08-07T21:51:39.135Z,98565.00
2018-08-07T21:53:43.046Z,98568.00
2018-08-07T21:55:46.654Z,98578.00
2018-08-07T21:57:50.310Z,98573.00
2018-08-07T21:59:53.898Z,98571.00
2018-08-07T22:01:59.734Z,98572.00
2018-08-07T22:04:07.566Z,98579.00
2018-08-07T22:06:13.948Z,98577.00
2018-08-07T22:08:19.069Z,98573.00
2018-08-07T22:10:22.814Z,98573.00
2018-08-07T22:12:26.457Z,98573.00
2018-08-07T22:14:31.085Z,98569.00
2018-08-07T22:16:35.500Z,98570.00
2018-08-07T22:18:39.805Z,98569.00
2018-08-07T22:20:43.767Z,98572.00
2018-08-07T22:22:47.298Z,98571.00
2018-08-07T22:24:50.845Z,98572.00
2018-08-07T22:26:54.670Z,98574.00
2018-08-07T22:28:58.763Z,98571.00
2018-08-07T22:31:05.947Z,98566.00
2018-08-07T22:33:14.806Z,98567.00
2018-08-07T22:35:20.375Z,98565.00
2018-08-07T22:37:26.735Z,98562.00
2018-08-07T22:39:31.376Z,98566.00
2018-08-07T22:41:35.492Z,98564.00
2018-08-07T22:43:39.883Z,98564.00
2018-08-07T22:45:43.975Z,98563.00
2018-08-07T22:47:48.328Z,98566.00
2018-08-07T22:49:51.958Z,98562.00
2018-08-07T22:51:56.195Z,98565.00
2018-08-07T22:54:00.383Z,98563.00
2018-08-07T22:56:04.756Z,98569.00
2018-08-07T22:58:18.024Z,98567.00
2018-08-07T23:00:23.681Z,98563.00
2018-08-07T23:02:27.707Z,98557.00
2018-08-07T23:04:32.081Z,98556.00
2018-08-07T23:06:36.967Z,98548.00
2018-08-07T23:08:41.263Z,98550.00
2018-08-07T23:10:45.354Z,98548.00
2018-08-07T23:12:49.162Z,98541.00
2018-08-07T23:14:52.999Z,98540.00
2018-08-07T23:16:57.283Z,98536.00
2018-08-07T23:19:01.110Z,98535.00
2018-08-07T23:21:04.734Z,98530.00
2018-08-07T23:23:09.335Z,98533.00
2018-08-07T23:25:15.129Z,98531.00
2018-08-07T23:27:23.629Z,98528.00
2018-08-07T23:29:29.567Z,98528.00
2018-08-07T23:31:33.273Z,98521.00
2018-08-07T23:33:36.837Z,98516.00
2018-08-07T23:35:41.897Z,98513.00
2018-08-07T23:37:45.541Z,98518.00
2018-08-07T23:39:49.473Z,98520.00
2018-08-07T23:41:53.625Z,98513.00
2018-08-07T23:43:57.229Z,98507.00
2018-08-07T23:46:00.885Z,98506.00
2018-08-07T23:48:05.434Z,98500.00
2018-08-07T23:50:09.794Z,98498.00
2018-08-07T23:52:13.600Z,98499.00
2018-08-07T23:54:20.549Z,98499.00
2018-08-07T23:56:26.966Z,98497.00
2018-08-07T23:58:32.077Z,98495.00
